sensor_id;sensor_type;location;lat;lon;timestamp;pressure;altitude;pressure_sealevel;temperature;humidity
7918;BME280;4004;42.624;23.386;2023-05-20T00:00:44;94453.34;;;12.23;100.00
7918;BME280;4004;42.624;23.386;2023-05-20T00:03:10;94448.31;;;12.21;100.00
7918;BME280;4004;42.624;23.386;2023-05-20T00:05:37;94452.50;;;12.19;100.00
7918;BME280;4004;42.624;23.386;2023-05-20T00:08:04;94448.94;;;12.15;100.00
7918;BME280;4004;42.624;23.386;2023-05-20T00:10:33;94451.94;;;12.10;100.00
7918;BME280;4004;42.624;23.386;2023-05-20T00:13:02;94449.53;;;12.05;100.00
7918;BME280;4004;42.624;23.386;2023-05-20T00:15:29;94452.81;;;11.94;100.00
7918;BME280;4004;42.624;23.386;2023-05-20T00:17:56;94447.22;;;11.87;100.00
7918;BME280;4004;42.624;23.386;2023-05-20T00:20:22;94444.22;;;11.89;100.00
7918;BME280;4004;42.624;23.386;2023-05-20T00:22:49;94450.38;;;11.89;100.00
7918;BME280;4004;42.624;23.386;2023-05-20T00:25:16;94456.13;;;11.88;100.00
7918;BME280;4004;42.624;23.386;2023-05-20T00:27:43;94452.56;;;11.83;100.00
7918;BME280;4004;42.624;23.386;2023-05-20T00:30:12;94462.00;;;11.74;100.00
7918;BME280;4004;42.624;23.386;2023-05-20T00:32:39;94446.72;;;11.62;100.00
7918;BME280;4004;42.624;23.386;2023-05-20T00:35:06;94444.66;;;11.55;100.00
7918;BME280;4004;42.624;23.386;2023-05-20T00:37:33;94446.34;;;11.44;100.00
7918;BME280;4004;42.624;23.386;2023-05-20T00:40:00;94438.31;;;11.28;100.00
7918;BME280;4004;42.624;23.386;2023-05-20T00:42:27;94430.00;;;11.17;100.00
7918;BME280;4004;42.624;23.386;2023-05-20T00:44:54;94432.47;;;11.07;100.00
7918;BME280;4004;42.624;23.386;2023-05-20T00:47:26;94425.34;;;11.14;100.00
7918;BME280;4004;42.624;23.386;2023-05-20T00:49:54;94421.25;;;11.20;100.00
7918;BME280;4004;42.624;23.386;2023-05-20T00:52:22;94417.72;;;11.16;100.00
7918;BME280;4004;42.624;23.386;2023-05-20T00:54:49;94407.72;;;11.17;100.00
7918;BME280;4004;42.624;23.386;2023-05-20T00:57:16;94403.97;;;11.22;100.00
7918;BME280;4004;42.624;23.386;2023-05-20T00:59:44;94416.38;;;11.26;100.00
7918;BME280;4004;42.624;23.386;2023-05-20T01:02:11;94414.97;;;11.32;100.00
7918;BME280;4004;42.624;23.386;2023-05-20T01:04:40;94405.06;;;11.36;100.00
7918;BME280;4004;42.624;23.386;2023-05-20T01:07:12;94418.66;;;11.44;100.00
7918;BME280;4004;42.624;23.386;2023-05-20T01:09:39;94422.69;;;11.34;100.00
7918;BME280;4004;42.624;23.386;2023-05-20T01:12:12;94429.28;;;11.36;100.00
7918;BME280;4004;42.624;23.386;2023-05-20T01:14:44;94425.16;;;11.23;100.00
7918;BME280;4004;42.624;23.386;2023-05-20T01:17:12;94434.00;;;11.24;100.00
7918;BME280;4004;42.624;23.386;2023-05-20T01:19:44;94431.66;;;11.22;100.00
7918;BME280;4004;42.624;23.386;2023-05-20T01:22:12;94435.16;;;11.07;100.00
7918;BME280;4004;42.624;23.386;2023-05-20T01:24:42;94441.25;;;11.04;100.00
7918;BME280;4004;42.624;23.386;2023-05-20T01:27:09;94435.78;;;11.00;100.00
7918;BME280;4004;42.624;23.386;2023-05-20T01:29:37;94441.78;;;10.93;100.00
7918;BME280;4004;42.624;23.386;2023-05-20T01:32:08;94437.81;;;10.87;100.00
7918;BME280;4004;42.624;23.386;2023-05-20T01:34:36;94429.47;;;10.92;100.00
7918;BME280;4004;42.624;23.386;2023-05-20T01:37:05;94423.75;;;10.94;100.00
7918;BME280;4004;42.624;23.386;2023-05-20T01:39:33;94425.72;;;10.97;100.00
7918;BME280;4004;42.624;23.386;2023-05-20T01:42:04;94423.13;;;11.01;100.00
7918;BME280;4004;42.624;23.386;2023-05-20T01:44:31;94427.44;;;11.05;100.00
7918;BME280;4004;42.624;23.386;2023-05-20T01:46:58;94417.53;;;11.09;100.00
7918;BME280;4004;42.624;23.386;2023-05-20T01:49:25;94419.97;;;11.14;100.00
7918;BME280;4004;42.624;23.386;2023-05-20T01:51:52;94421.44;;;11.12;100.00
7918;BME280;4004;42.624;23.386;2023-05-20T01:54:19;94422.44;;;10.88;100.00
7918;BME280;4004;42.624;23.386;2023-05-20T01:56:46;94414.81;;;10.90;100.00
7918;BME280;4004;42.624;23.386;2023-05-20T01:59:14;94421.13;;;10.82;100.00
7918;BME280;4004;42.624;23.386;2023-05-20T02:01:41;94410.28;;;10.78;100.00
7918;BME280;4004;42.624;23.386;2023-05-20T02:04:08;94415.84;;;10.85;100.00
7918;BME280;4004;42.624;23.386;2023-05-20T02:06:34;94416.63;;;10.86;100.00
7918;BME280;4004;42.624;23.386;2023-05-20T02:09:01;94413.16;;;10.85;100.00
7918;BME280;4004;42.624;23.386;2023-05-20T02:11:28;94407.78;;;10.85;100.00
7918;BME280;4004;42.624;23.386;2023-05-20T02:13:55;94411.25;;;10.86;100.00
7918;BME280;4004;42.624;23.386;2023-05-20T02:16:23;94414.22;;;10.81;100.00
7918;BME280;4004;42.624;23.386;2023-05-20T02:18:50;94422.19;;;10.77;100.00
7918;BME280;4004;42.624;23.386;2023-05-20T02:21:17;94415.66;;;10.78;100.00
7918;BME280;4004;42.624;23.386;2023-05-20T02:23:44;94417.09;;;10.72;100.00
7918;BME280;4004;42.624;23.386;2023-05-20T02:26:12;94407.09;;;10.72;100.00
7918;BME280;4004;42.624;23.386;2023-05-20T02:28:38;94406.31;;;10.72;100.00
7918;BME280;4004;42.624;23.386;2023-05-20T02:31:10;94400.09;;;10.68;100.00
7918;BME280;4004;42.624;23.386;2023-05-20T02:33:38;94411.00;;;10.59;100.00
7918;BME280;4004;42.624;23.386;2023-05-20T02:36:06;94403.00;;;10.63;100.00
7918;BME280;4004;42.624;23.386;2023-05-20T02:38:32;94400.25;;;10.59;100.00
7918;BME280;4004;42.624;23.386;2023-05-20T02:40:59;94405.19;;;10.57;100.00
7918;BME280;4004;42.624;23.386;2023-05-20T02:43:28;94409.81;;;10.56;100.00
7918;BME280;4004;42.624;23.386;2023-05-20T02:45:55;94403.56;;;10.52;100.00
7918;BME280;4004;42.624;23.386;2023-05-20T02:48:22;94406.50;;;10.47;100.00
7918;BME280;4004;42.624;23.386;2023-05-20T02:50:50;94407.03;;;10.37;100.00
7918;BME280;4004;42.624;23.386;2023-05-20T02:53:17;94405.63;;;10.43;100.00
7918;BME280;4004;42.624;23.386;2023-05-20T02:55:45;94401.47;;;10.46;100.00
7918;BME280;4004;42.624;23.386;2023-05-20T02:58:13;94403.03;;;10.47;100.00
7918;BME280;4004;42.624;23.386;2023-05-20T03:00:40;94400.88;;;10.52;100.00
7918;BME280;4004;42.624;23.386;2023-05-20T03:03:07;94406.41;;;10.60;100.00
7918;BME280;4004;42.624;23.386;2023-05-20T03:05:34;94406.25;;;10.52;100.00
7918;BME280;4004;42.624;23.386;2023-05-20T03:08:06;94406.31;;;10.40;100.00
7918;BME280;4004;42.624;23.386;2023-05-20T03:10:34;94407.28;;;10.48;100.00
7918;BME280;4004;42.624;23.386;2023-05-20T03:13:01;94414.13;;;10.61;100.00
7918;BME280;4004;42.624;23.386;2023-05-20T03:15:28;94409.09;;;10.75;100.00
7918;BME280;4004;42.624;23.386;2023-05-20T03:17:55;94418.28;;;10.90;100.00
7918;BME280;4004;42.624;23.386;2023-05-20T03:20:22;94408.44;;;11.14;100.00
7918;BME280;4004;42.624;23.386;2023-05-20T03:22:50;94423.53;;;11.38;100.00
7918;BME280;4004;42.624;23.386;2023-05-20T03:25:18;94423.22;;;11.78;100.00
7918;BME280;4004;42.624;23.386;2023-05-20T03:27:45;94423.94;;;11.95;100.00
7918;BME280;4004;42.624;23.386;2023-05-20T03:30:12;94419.44;;;12.22;100.00
7918;BME280;4004;42.624;23.386;2023-05-20T03:32:39;94427.88;;;12.67;100.00
7918;BME280;4004;42.624;23.386;2023-05-20T03:35:07;94429.94;;;13.23;100.00
7918;BME280;4004;42.624;23.386;2023-05-20T03:37:34;94430.13;;;13.98;100.00
7918;BME280;4004;42.624;23.386;2023-05-20T03:40:00;94433.72;;;14.09;98.45
7918;BME280;4004;42.624;23.386;2023-05-20T03:42:31;94438.91;;;14.25;95.72
7918;BME280;4004;42.624;23.386;2023-05-20T03:44:58;94434.09;;;14.07;95.74
7918;BME280;4004;42.624;23.386;2023-05-20T03:47:25;94439.19;;;13.79;96.59
7918;BME280;4004;42.624;23.386;2023-05-20T03:49:52;94446.03;;;13.73;96.39
7918;BME280;4004;42.624;23.386;2023-05-20T03:52:19;94453.69;;;13.97;96.15
7918;BME280;4004;42.624;23.386;2023-05-20T03:54:46;94458.72;;;14.70;92.58
7918;BME280;4004;42.624;23.386;2023-05-20T03:57:12;94457.22;;;15.87;86.62
7918;BME280;4004;42.624;23.386;2023-05-20T03:59:40;94468.97;;;16.27;77.16
7918;BME280;4004;42.624;23.386;2023-05-20T04:02:07;94466.56;;;16.00;78.12
7918;BME280;4004;42.624;23.386;2023-05-20T04:04:34;94478.25;;;15.49;80.57
7918;BME280;4004;42.624;23.386;2023-05-20T04:07:02;94480.75;;;15.17;82.33
7918;BME280;4004;42.624;23.386;2023-05-20T04:09:29;94474.94;;;15.70;81.14
7918;BME280;4004;42.624;23.386;2023-05-20T04:11:55;94473.34;;;16.53;74.64
7918;BME280;4004;42.624;23.386;2023-05-20T04:14:22;94476.94;;;17.32;66.80
7918;BME280;4004;42.624;23.386;2023-05-20T04:16:50;94468.34;;;17.55;63.12
7918;BME280;4004;42.624;23.386;2023-05-20T04:19:17;94482.25;;;18.04;61.84
7918;BME280;4004;42.624;23.386;2023-05-20T04:21:44;94476.78;;;18.08;60.83
7918;BME280;4004;42.624;23.386;2023-05-20T04:24:11;94479.63;;;19.26;57.35
7918;BME280;4004;42.624;23.386;2023-05-20T04:26:38;94485.19;;;20.95;52.86
7918;BME280;4004;42.624;23.386;2023-05-20T04:29:05;94472.81;;;21.84;50.09
7918;BME280;4004;42.624;23.386;2023-05-20T04:31:32;94464.44;;;23.08;47.26
7918;BME280;4004;42.624;23.386;2023-05-20T04:34:00;94477.28;;;23.76;44.67
7918;BME280;4004;42.624;23.386;2023-05-20T04:36:27;94462.94;;;23.69;43.72
7918;BME280;4004;42.624;23.386;2023-05-20T04:38:54;94474.06;;;23.94;43.47
7918;BME280;4004;42.624;23.386;2023-05-20T04:41:20;94475.06;;;24.59;42.74
7918;BME280;4004;42.624;23.386;2023-05-20T04:43:47;94480.28;;;24.95;41.68
7918;BME280;4004;42.624;23.386;2023-05-20T04:46:14;94488.19;;;25.19;41.26
7918;BME280;4004;42.624;23.386;2023-05-20T04:48:41;94480.72;;;25.32;41.30
7918;BME280;4004;42.624;23.386;2023-05-20T04:51:09;94489.84;;;25.42;40.84
7918;BME280;4004;42.624;23.386;2023-05-20T04:53:36;94495.44;;;25.64;40.12
7918;BME280;4004;42.624;23.386;2023-05-20T04:56:04;94488.41;;;25.98;39.73
7918;BME280;4004;42.624;23.386;2023-05-20T04:58:32;94498.50;;;26.14;39.33
7918;BME280;4004;42.624;23.386;2023-05-20T05:00:59;94491.94;;;25.25;40.32
7918;BME280;4004;42.624;23.386;2023-05-20T05:03:27;94487.59;;;24.60;41.07
7918;BME280;4004;42.624;23.386;2023-05-20T05:05:55;94489.13;;;24.48;41.84
7918;BME280;4004;42.624;23.386;2023-05-20T05:08:23;94484.59;;;23.50;43.29
7918;BME280;4004;42.624;23.386;2023-05-20T05:10:50;94489.91;;;24.03;42.32
7918;BME280;4004;42.624;23.386;2023-05-20T05:13:16;94487.41;;;24.80;41.60
7918;BME280;4004;42.624;23.386;2023-05-20T05:15:43;94481.78;;;25.48;40.50
7918;BME280;4004;42.624;23.386;2023-05-20T05:18:10;94494.31;;;26.09;39.25
7918;BME280;4004;42.624;23.386;2023-05-20T05:20:37;94501.06;;;26.52;38.82
7918;BME280;4004;42.624;23.386;2023-05-20T05:23:03;94494.63;;;27.21;38.11
7918;BME280;4004;42.624;23.386;2023-05-20T05:25:32;94494.44;;;27.25;37.30
7918;BME280;4004;42.624;23.386;2023-05-20T05:27:58;94492.25;;;27.51;37.09
7918;BME280;4004;42.624;23.386;2023-05-20T05:30:25;94478.22;;;28.14;36.03
7918;BME280;4004;42.624;23.386;2023-05-20T05:32:52;94485.13;;;28.00;36.30
7918;BME280;4004;42.624;23.386;2023-05-20T05:35:19;94472.81;;;28.56;35.93
7918;BME280;4004;42.624;23.386;2023-05-20T05:37:45;94479.94;;;29.42;35.29
7918;BME280;4004;42.624;23.386;2023-05-20T05:40:12;94484.03;;;29.56;34.41
7918;BME280;4004;42.624;23.386;2023-05-20T05:42:40;94483.56;;;30.30;33.94
7918;BME280;4004;42.624;23.386;2023-05-20T05:45:08;94479.88;;;30.63;33.26
7918;BME280;4004;42.624;23.386;2023-05-20T05:47:35;94485.16;;;30.90;32.81
7918;BME280;4004;42.624;23.386;2023-05-20T05:50:02;94491.81;;;31.78;31.99
7918;BME280;4004;42.624;23.386;2023-05-20T05:52:29;94491.44;;;32.06;31.36
7918;BME280;4004;42.624;23.386;2023-05-20T05:54:55;94496.41;;;31.31;31.77
7918;BME280;4004;42.624;23.386;2023-05-20T05:57:22;94482.28;;;30.55;32.59
7918;BME280;4004;42.624;23.386;2023-05-20T05:59:50;94477.47;;;30.02;32.72
7918;BME280;4004;42.624;23.386;2023-05-20T06:02:17;94479.25;;;30.29;31.69
7918;BME280;4004;42.624;23.386;2023-05-20T06:04:44;94484.28;;;30.84;31.76
7918;BME280;4004;42.624;23.386;2023-05-20T06:07:11;94478.34;;;30.47;31.38
7918;BME280;4004;42.624;23.386;2023-05-20T06:09:38;94470.88;;;30.68;30.64
7918;BME280;4004;42.624;23.386;2023-05-20T06:12:05;94468.00;;;30.47;30.43
7918;BME280;4004;42.624;23.386;2023-05-20T06:14:31;94475.06;;;30.09;32.89
7918;BME280;4004;42.624;23.386;2023-05-20T06:16:59;94474.13;;;29.64;32.59
7918;BME280;4004;42.624;23.386;2023-05-20T06:19:26;94467.94;;;29.03;32.69
7918;BME280;4004;42.624;23.386;2023-05-20T06:21:53;94473.66;;;29.32;31.60
7918;BME280;4004;42.624;23.386;2023-05-20T06:24:20;94467.00;;;29.48;32.39
7918;BME280;4004;42.624;23.386;2023-05-20T06:26:46;94464.78;;;28.86;31.79
7918;BME280;4004;42.624;23.386;2023-05-20T06:29:14;94463.44;;;28.44;33.72
7918;BME280;4004;42.624;23.386;2023-05-20T06:31:41;94453.94;;;27.90;34.06
7918;BME280;4004;42.624;23.386;2023-05-20T06:34:09;94456.66;;;27.72;35.56
7918;BME280;4004;42.624;23.386;2023-05-20T06:36:36;94450.94;;;26.98;33.93
7918;BME280;4004;42.624;23.386;2023-05-20T06:39:03;94443.63;;;26.51;35.34
7918;BME280;4004;42.624;23.386;2023-05-20T06:41:30;94449.59;;;26.05;36.44
7918;BME280;4004;42.624;23.386;2023-05-20T06:43:57;94440.53;;;25.82;36.52
7918;BME280;4004;42.624;23.386;2023-05-20T06:46:24;94438.44;;;25.39;37.34
7918;BME280;4004;42.624;23.386;2023-05-20T06:48:50;94435.47;;;25.08;37.64
7918;BME280;4004;42.624;23.386;2023-05-20T06:51:18;94439.25;;;24.88;38.60
7918;BME280;4004;42.624;23.386;2023-05-20T06:53:45;94437.56;;;24.65;39.47
7918;BME280;4004;42.624;23.386;2023-05-20T06:56:12;94432.63;;;24.60;39.53
7918;BME280;4004;42.624;23.386;2023-05-20T06:58:39;94435.38;;;24.60;40.37
7918;BME280;4004;42.624;23.386;2023-05-20T07:01:05;94446.72;;;24.75;40.09
7918;BME280;4004;42.624;23.386;2023-05-20T07:03:32;94448.78;;;25.09;39.41
7918;BME280;4004;42.624;23.386;2023-05-20T07:05:59;94450.22;;;25.14;39.55
7918;BME280;4004;42.624;23.386;2023-05-20T07:08:27;94439.91;;;24.92;40.39
7918;BME280;4004;42.624;23.386;2023-05-20T07:10:54;94433.72;;;25.01;40.13
7918;BME280;4004;42.624;23.386;2023-05-20T07:13:21;94439.13;;;25.17;39.94
7918;BME280;4004;42.624;23.386;2023-05-20T07:15:48;94437.88;;;25.06;40.89
7918;BME280;4004;42.624;23.386;2023-05-20T07:18:15;94430.75;;;25.08;40.31
7918;BME280;4004;42.624;23.386;2023-05-20T07:20:43;94435.03;;;25.09;39.97
7918;BME280;4004;42.624;23.386;2023-05-20T07:23:10;94431.09;;;24.59;40.54
7918;BME280;4004;42.624;23.386;2023-05-20T07:25:38;94425.13;;;24.60;41.29
7918;BME280;4004;42.624;23.386;2023-05-20T07:28:05;94418.31;;;24.65;40.15
7918;BME280;4004;42.624;23.386;2023-05-20T07:30:31;94423.41;;;24.79;40.42
7918;BME280;4004;42.624;23.386;2023-05-20T07:32:58;94419.00;;;24.27;40.14
7918;BME280;4004;42.624;23.386;2023-05-20T07:35:25;94426.81;;;23.87;40.10
7918;BME280;4004;42.624;23.386;2023-05-20T07:37:51;94434.38;;;23.66;40.96
7918;BME280;4004;42.624;23.386;2023-05-20T07:40:18;94430.19;;;23.78;41.20
7918;BME280;4004;42.624;23.386;2023-05-20T07:42:46;94436.41;;;23.95;41.07
7918;BME280;4004;42.624;23.386;2023-05-20T07:45:13;94435.63;;;23.16;41.59
7918;BME280;4004;42.624;23.386;2023-05-20T07:47:40;94434.50;;;22.97;42.96
7918;BME280;4004;42.624;23.386;2023-05-20T07:50:07;94426.81;;;23.08;42.30
7918;BME280;4004;42.624;23.386;2023-05-20T07:52:34;94416.66;;;22.89;43.33
7918;BME280;4004;42.624;23.386;2023-05-20T07:55:00;94427.53;;;22.76;44.45
7918;BME280;4004;42.624;23.386;2023-05-20T07:57:28;94423.66;;;22.57;45.70
7918;BME280;4004;42.624;23.386;2023-05-20T07:59:56;94420.41;;;22.62;43.67
7918;BME280;4004;42.624;23.386;2023-05-20T08:02:22;94421.25;;;22.59;44.14
7918;BME280;4004;42.624;23.386;2023-05-20T08:04:49;94419.22;;;22.80;43.49
7918;BME280;4004;42.624;23.386;2023-05-20T08:07:16;94421.16;;;22.63;46.33
7918;BME280;4004;42.624;23.386;2023-05-20T08:09:42;94402.03;;;22.43;46.60
7918;BME280;4004;42.624;23.386;2023-05-20T08:12:09;94431.41;;;22.22;47.04
7918;BME280;4004;42.624;23.386;2023-05-20T08:14:36;94426.06;;;22.15;46.83
7918;BME280;4004;42.624;23.386;2023-05-20T08:17:04;94414.91;;;22.06;47.14
7918;BME280;4004;42.624;23.386;2023-05-20T08:19:31;94417.56;;;22.09;46.79
7918;BME280;4004;42.624;23.386;2023-05-20T08:21:58;94418.81;;;22.05;48.06
7918;BME280;4004;42.624;23.386;2023-05-20T08:24:24;94414.84;;;22.29;47.30
7918;BME280;4004;42.624;23.386;2023-05-20T08:26:51;94418.13;;;22.41;47.36
7918;BME280;4004;42.624;23.386;2023-05-20T08:29:18;94410.41;;;22.15;46.56
7918;BME280;4004;42.624;23.386;2023-05-20T08:31:44;94427.38;;;22.07;45.93
7918;BME280;4004;42.624;23.386;2023-05-20T08:34:12;94431.75;;;21.84;45.64
7918;BME280;4004;42.624;23.386;2023-05-20T08:36:39;94413.19;;;21.72;47.96
7918;BME280;4004;42.624;23.386;2023-05-20T08:39:06;94409.56;;;21.79;48.19
7918;BME280;4004;42.624;23.386;2023-05-20T08:41:33;94391.25;;;21.96;47.65
7918;BME280;4004;42.624;23.386;2023-05-20T08:44:00;94410.00;;;21.77;47.98
7918;BME280;4004;42.624;23.386;2023-05-20T08:46:27;94413.78;;;21.83;47.61
7918;BME280;4004;42.624;23.386;2023-05-20T08:48:54;94415.34;;;21.61;47.57
7918;BME280;4004;42.624;23.386;2023-05-20T08:51:23;94417.16;;;21.24;47.70
7918;BME280;4004;42.624;23.386;2023-05-20T08:53:52;94414.56;;;21.17;49.23
7918;BME280;4004;42.624;23.386;2023-05-20T08:56:20;94412.88;;;21.23;48.62
7918;BME280;4004;42.624;23.386;2023-05-20T08:58:47;94415.50;;;21.30;48.47
7918;BME280;4004;42.624;23.386;2023-05-20T09:01:14;94407.78;;;21.48;47.58
7918;BME280;4004;42.624;23.386;2023-05-20T09:03:42;94406.31;;;21.40;47.97
7918;BME280;4004;42.624;23.386;2023-05-20T09:06:09;94403.59;;;21.40;47.16
7918;BME280;4004;42.624;23.386;2023-05-20T09:08:38;94388.38;;;21.39;48.83
7918;BME280;4004;42.624;23.386;2023-05-20T09:11:08;94387.44;;;21.49;48.91
7918;BME280;4004;42.624;23.386;2023-05-20T09:13:35;94392.78;;;21.57;50.44
7918;BME280;4004;42.624;23.386;2023-05-20T09:16:02;94397.41;;;21.36;48.04
7918;BME280;4004;42.624;23.386;2023-05-20T09:18:29;94390.09;;;21.29;47.75
7918;BME280;4004;42.624;23.386;2023-05-20T09:20:56;94395.22;;;21.27;50.89
7918;BME280;4004;42.624;23.386;2023-05-20T09:23:23;94378.56;;;21.18;48.26
7918;BME280;4004;42.624;23.386;2023-05-20T09:25:53;94380.19;;;21.16;47.93
7918;BME280;4004;42.624;23.386;2023-05-20T09:28:22;94381.19;;;21.25;48.82
7918;BME280;4004;42.624;23.386;2023-05-20T09:30:49;94377.50;;;21.36;48.18
7918;BME280;4004;42.624;23.386;2023-05-20T09:33:16;94370.19;;;21.52;47.89
7918;BME280;4004;42.624;23.386;2023-05-20T09:35:43;94370.78;;;21.40;48.21
7918;BME280;4004;42.624;23.386;2023-05-20T09:38:10;94367.63;;;21.18;49.09
7918;BME280;4004;42.624;23.386;2023-05-20T09:40:37;94369.97;;;21.20;49.58
7918;BME280;4004;42.624;23.386;2023-05-20T09:43:07;94359.31;;;21.25;48.56
7918;BME280;4004;42.624;23.386;2023-05-20T09:45:36;94359.06;;;21.40;50.60
7918;BME280;4004;42.624;23.386;2023-05-20T09:48:03;94356.16;;;21.50;48.52
7918;BME280;4004;42.624;23.386;2023-05-20T09:50:30;94360.03;;;21.53;48.63
7918;BME280;4004;42.624;23.386;2023-05-20T09:53:01;94349.94;;;21.70;50.25
7918;BME280;4004;42.624;23.386;2023-05-20T09:55:29;94346.41;;;21.69;48.12
7918;BME280;4004;42.624;23.386;2023-05-20T09:57:57;94342.28;;;21.61;48.99
7918;BME280;4004;42.624;23.386;2023-05-20T10:00:26;94354.50;;;21.33;48.53
7918;BME280;4004;42.624;23.386;2023-05-20T10:02:52;94335.53;;;21.22;49.24
7918;BME280;4004;42.624;23.386;2023-05-20T10:05:22;94347.44;;;21.12;47.43
7918;BME280;4004;42.624;23.386;2023-05-20T10:08:15;94355.88;;;20.98;47.83
7918;BME280;4004;42.624;23.386;2023-05-20T10:10:48;94336.44;;;21.16;48.75
7918;BME280;4004;42.624;23.386;2023-05-20T10:13:32;94342.19;;;21.45;50.53
7918;BME280;4004;42.624;23.386;2023-05-20T10:16:12;94331.84;;;21.32;47.84
7918;BME280;4004;42.624;23.386;2023-05-20T10:18:50;94322.56;;;21.06;47.79
7918;BME280;4004;42.624;23.386;2023-05-20T10:21:21;94331.19;;;20.81;48.00
7918;BME280;4004;42.624;23.386;2023-05-20T10:23:49;94310.44;;;20.84;49.84
7918;BME280;4004;42.624;23.386;2023-05-20T10:26:16;94311.03;;;20.95;50.24
7918;BME280;4004;42.624;23.386;2023-05-20T10:28:45;94328.03;;;21.06;47.48
7918;BME280;4004;42.624;23.386;2023-05-20T10:31:17;94315.44;;;21.13;49.73
7918;BME280;4004;42.624;23.386;2023-05-20T10:33:44;94319.78;;;21.30;46.50
7918;BME280;4004;42.624;23.386;2023-05-20T10:36:21;94319.00;;;21.29;47.51
7918;BME280;4004;42.624;23.386;2023-05-20T10:38:53;94337.28;;;21.13;46.63
7918;BME280;4004;42.624;23.386;2023-05-20T10:41:21;94305.38;;;21.06;46.68
7918;BME280;4004;42.624;23.386;2023-05-20T10:43:58;94316.50;;;20.95;46.31
7918;BME280;4004;42.624;23.386;2023-05-20T10:46:27;94291.41;;;21.00;46.93
7918;BME280;4004;42.624;23.386;2023-05-20T10:48:55;94288.69;;;21.00;47.36
7918;BME280;4004;42.624;23.386;2023-05-20T10:51:22;94299.34;;;20.95;46.54
7918;BME280;4004;42.624;23.386;2023-05-20T10:53:52;94301.84;;;20.85;47.36
7918;BME280;4004;42.624;23.386;2023-05-20T10:56:20;94299.69;;;20.73;46.76
7918;BME280;4004;42.624;23.386;2023-05-20T10:58:48;94303.69;;;20.68;47.06
7918;BME280;4004;42.624;23.386;2023-05-20T11:01:15;94306.47;;;20.65;47.13
7918;BME280;4004;42.624;23.386;2023-05-20T11:03:45;94291.88;;;20.75;48.93
7918;BME280;4004;42.624;23.386;2023-05-20T11:06:12;94306.41;;;20.92;46.74
7918;BME280;4004;42.624;23.386;2023-05-20T11:08:39;94298.81;;;21.03;46.79
7918;BME280;4004;42.624;23.386;2023-05-20T11:11:06;94288.78;;;21.17;45.11
7918;BME280;4004;42.624;23.386;2023-05-20T11:13:33;94283.31;;;21.17;45.41
7918;BME280;4004;42.624;23.386;2023-05-20T11:16:00;94312.34;;;21.10;45.15
7918;BME280;4004;42.624;23.386;2023-05-20T11:18:27;94288.31;;;20.98;45.15
7918;BME280;4004;42.624;23.386;2023-05-20T11:20:58;94286.22;;;20.86;46.49
7918;BME280;4004;42.624;23.386;2023-05-20T11:23:25;94277.13;;;20.93;46.62
7918;BME280;4004;42.624;23.386;2023-05-20T11:25:54;94267.31;;;20.95;46.17
7918;BME280;4004;42.624;23.386;2023-05-20T11:28:21;94265.16;;;20.83;46.66
7918;BME280;4004;42.624;23.386;2023-05-20T11:30:49;94268.34;;;20.81;46.38
7918;BME280;4004;42.624;23.386;2023-05-20T11:33:17;94269.66;;;20.73;47.06
7918;BME280;4004;42.624;23.386;2023-05-20T11:35:44;94263.53;;;20.65;46.72
7918;BME280;4004;42.624;23.386;2023-05-20T11:38:13;94244.06;;;20.63;47.15
7918;BME280;4004;42.624;23.386;2023-05-20T11:40:42;94246.81;;;20.63;47.34
7918;BME280;4004;42.624;23.386;2023-05-20T11:43:11;94251.22;;;20.30;47.63
7918;BME280;4004;42.624;23.386;2023-05-20T11:45:39;94252.03;;;20.27;48.00
7918;BME280;4004;42.624;23.386;2023-05-20T11:48:07;94249.94;;;20.11;49.40
7918;BME280;4004;42.624;23.386;2023-05-20T11:50:35;94246.44;;;19.83;49.58
7918;BME280;4004;42.624;23.386;2023-05-20T11:53:04;94248.97;;;19.67;49.64
7918;BME280;4004;42.624;23.386;2023-05-20T11:55:33;94234.91;;;19.72;50.02
7918;BME280;4004;42.624;23.386;2023-05-20T11:58:02;94226.72;;;19.99;49.82
7918;BME280;4004;42.624;23.386;2023-05-20T12:00:29;94236.53;;;20.20;49.51
7918;BME280;4004;42.624;23.386;2023-05-20T12:02:56;94235.44;;;20.14;49.24
7918;BME280;4004;42.624;23.386;2023-05-20T12:05:22;94232.19;;;19.99;49.47
7918;BME280;4004;42.624;23.386;2023-05-20T12:07:49;94229.75;;;19.78;49.81
7918;BME280;4004;42.624;23.386;2023-05-20T12:10:16;94220.94;;;19.66;50.84
7918;BME280;4004;42.624;23.386;2023-05-20T12:12:44;94227.00;;;19.51;52.28
7918;BME280;4004;42.624;23.386;2023-05-20T12:15:11;94229.19;;;19.32;52.96
7918;BME280;4004;42.624;23.386;2023-05-20T12:17:46;94231.44;;;19.37;52.70
7918;BME280;4004;42.624;23.386;2023-05-20T12:20:14;94258.81;;;19.26;53.16
7918;BME280;4004;42.624;23.386;2023-05-20T12:22:42;94319.91;;;18.91;52.79
7918;BME280;4004;42.624;23.386;2023-05-20T12:25:10;94274.28;;;18.57;53.90
7918;BME280;4004;42.624;23.386;2023-05-20T12:27:38;94296.28;;;18.29;56.38
7918;BME280;4004;42.624;23.386;2023-05-20T12:30:07;94291.88;;;17.93;60.52
7918;BME280;4004;42.624;23.386;2023-05-20T12:32:35;94328.47;;;17.71;64.65
7918;BME280;4004;42.624;23.386;2023-05-20T12:35:02;94306.06;;;17.42;66.55
7918;BME280;4004;42.624;23.386;2023-05-20T12:37:29;94324.72;;;17.36;67.91
7918;BME280;4004;42.624;23.386;2023-05-20T12:39:56;94325.53;;;17.26;69.85
7918;BME280;4004;42.624;23.386;2023-05-20T12:42:23;94291.75;;;17.27;69.99
7918;BME280;4004;42.624;23.386;2023-05-20T12:44:50;94289.84;;;17.24;67.64
7918;BME280;4004;42.624;23.386;2023-05-20T12:47:19;94292.13;;;17.32;66.86
7918;BME280;4004;42.624;23.386;2023-05-20T12:49:46;94277.72;;;17.43;65.84
7918;BME280;4004;42.624;23.386;2023-05-20T12:52:13;94274.19;;;17.53;63.99
7918;BME280;4004;42.624;23.386;2023-05-20T12:54:39;94272.56;;;17.66;64.12
7918;BME280;4004;42.624;23.386;2023-05-20T12:57:06;94263.94;;;17.78;61.31
7918;BME280;4004;42.624;23.386;2023-05-20T12:59:33;94258.50;;;17.78;60.14
7918;BME280;4004;42.624;23.386;2023-05-20T13:02:00;94265.53;;;17.83;59.52
7918;BME280;4004;42.624;23.386;2023-05-20T13:04:28;94267.78;;;17.92;59.58
7918;BME280;4004;42.624;23.386;2023-05-20T13:06:55;94245.13;;;18.09;59.28
7918;BME280;4004;42.624;23.386;2023-05-20T13:09:21;94240.25;;;18.35;61.17